createdAt,value
2019-03-16T00:01:40.438Z,97.45
2019-03-16T00:04:29.899Z,97.49
2019-03-16T00:07:32.207Z,97.35
2019-03-16T00:09:54.974Z,96.69
2019-03-16T00:12:44.598Z,96.88
2019-03-16T00:15:33.799Z,96.40
2019-03-16T00:18:15.538Z,96.10
2019-03-16T00:20:56.095Z,98.41
2019-03-16T00:23:45.318Z,96.98
2019-03-16T00:26:34.749Z,97.68
2019-03-16T00:29:24.293Z,96.29
2019-03-16T00:32:13.935Z,97.49
2019-03-16T00:35:03.461Z,96.47
2019-03-16T00:37:53.518Z,98.09
2019-03-16T00:40:42.972Z,97.95
2019-03-16T00:43:32.258Z,97.76
2019-03-16T00:46:02.439Z,97.56
2019-03-16T00:48:51.880Z,96.59
2019-03-16T00:51:41.103Z,95.65
2019-03-16T00:54:30.551Z,96.07
2019-03-16T00:57:19.894Z,94.93
2019-03-16T01:00:08.497Z,95.08
2019-03-16T01:03:16.623Z,95.61
2019-03-16T01:06:05.854Z,94.39
2019-03-16T01:08:55.530Z,94.03
2019-03-16T01:11:44.943Z,94.06
2019-03-16T01:14:34.166Z,94.54
2019-03-16T01:17:23.514Z,91.60
2019-03-16T01:20:05.754Z,91.25
2019-03-16T01:22:47.702Z,90.48
2019-03-16T01:25:30.517Z,89.71
2019-03-16T01:28:11.689Z,89.26
2019-03-16T01:33:40.201Z,88.22
2019-03-16T01:36:21.870Z,88.78
2019-03-16T01:39:04.113Z,89.11
2019-03-16T01:41:46.144Z,87.87
2019-03-16T01:44:28.186Z,88.69
2019-03-16T01:47:08.344Z,88.45
2019-03-16T01:49:57.508Z,88.74
2019-03-16T01:52:46.963Z,88.86
2019-03-16T01:55:36.188Z,89.61
2019-03-16T01:58:25.614Z,88.52
2019-03-16T02:00:55.786Z,88.10
2019-03-16T02:03:26.143Z,87.67
2019-03-16T02:06:15.607Z,87.61
2019-03-16T02:08:45.691Z,87.22
2019-03-16T02:11:34.905Z,86.75
2019-03-16T02:14:19.400Z,86.62
2019-03-16T02:17:01.986Z,86.31
2019-03-16T02:19:42.289Z,85.76
2019-03-16T02:22:31.968Z,84.82
2019-03-16T02:25:21.367Z,83.98
2019-03-16T02:28:10.853Z,83.78
2019-03-16T02:31:00.027Z,83.44
2019-03-16T02:33:49.517Z,84.20
2019-03-16T02:40:08.478Z,84.76
2019-03-16T02:42:57.951Z,84.05
2019-03-16T02:48:43.250Z,82.05
2019-03-16T02:51:32.483Z,81.71
2019-03-16T02:54:02.634Z,81.35
2019-03-16T02:56:52.221Z,80.44
2019-03-16T02:59:41.670Z,80.58
2019-03-16T03:02:30.838Z,80.33
2019-03-16T03:05:20.159Z,79.63
2019-03-16T03:08:09.345Z,80.11
2019-03-16T03:10:58.754Z,79.38
2019-03-16T03:13:47.939Z,80.04
2019-03-16T03:16:18.101Z,79.47
2019-03-16T03:19:07.478Z,79.81
2019-03-16T03:21:49.032Z,79.67
2019-03-16T03:24:31.196Z,79.56
2019-03-16T03:27:11.329Z,80.03
2019-03-16T03:30:00.583Z,80.41
2019-03-16T03:32:49.766Z,80.83
2019-03-16T03:35:39.231Z,80.48
2019-03-16T03:38:28.704Z,81.01
2019-03-16T03:41:17.868Z,81.42
2019-03-16T03:44:07.657Z,82.10
2019-03-16T03:46:37.765Z,82.39
2019-03-16T03:49:27.220Z,82.49
2019-03-16T03:52:16.473Z,82.95
2019-03-16T03:58:01.457Z,82.52
2019-03-16T04:00:43.155Z,82.66
2019-03-16T04:03:24.894Z,82.71
2019-03-16T04:06:06.490Z,83.48
2019-03-16T04:08:48.033Z,83.74
2019-03-16T04:11:29.907Z,84.01
2019-03-16T04:14:11.685Z,84.17
2019-03-16T04:16:42.100Z,84.16
2019-03-16T04:19:12.432Z,84.43
2019-03-16T04:22:02.157Z,84.37
2019-03-16T04:24:32.343Z,83.94
2019-03-16T04:27:21.853Z,84.55
2019-03-16T04:30:11.147Z,84.99
2019-03-16T04:33:00.568Z,85.55
2019-03-16T04:35:49.742Z,85.10
2019-03-16T04:38:39.198Z,85.26
2019-03-16T04:41:28.438Z,85.43
2019-03-16T04:44:17.904Z,85.49
2019-03-16T04:46:48.100Z,85.12
2019-03-16T04:49:37.525Z,85.39
2019-03-16T04:52:26.937Z,85.19
2019-03-16T04:55:16.133Z,85.00
2019-03-16T04:58:05.580Z,85.21
2019-03-16T05:00:54.809Z,84.61
2019-03-16T05:03:44.277Z,84.44
2019-03-16T05:06:33.463Z,84.67
2019-03-16T05:09:23.549Z,84.74
2019-03-16T05:12:13.498Z,84.40
2019-03-16T05:15:03.932Z,83.80
2019-03-16T05:17:34.105Z,83.87
2019-03-16T05:20:04.452Z,84.00
2019-03-16T05:22:34.965Z,83.73
2019-03-16T05:25:05.551Z,83.40
2019-03-16T05:27:35.652Z,83.15
2019-03-16T05:30:06.285Z,83.31
2019-03-16T05:32:55.721Z,83.16
2019-03-16T05:35:44.914Z,83.41
2019-03-16T05:38:34.301Z,83.22
2019-03-16T05:41:04.587Z,83.72
2019-03-16T05:43:54.051Z,83.77
2019-03-16T05:46:43.469Z,83.95
2019-03-16T05:49:13.612Z,84.20
2019-03-16T05:51:43.827Z,83.93
2019-03-16T05:54:14.035Z,83.96
2019-03-16T05:56:44.535Z,84.09
2019-03-16T05:59:37.026Z,84.26
2019-03-16T06:02:26.473Z,84.19
2019-03-16T06:05:15.888Z,84.88
2019-03-16T06:07:46.158Z,84.57
2019-03-16T06:10:16.291Z,84.92
2019-03-16T06:12:46.980Z,85.09
2019-03-16T06:15:36.157Z,85.27
2019-03-16T06:18:25.372Z,85.12
2019-03-16T06:20:55.579Z,85.22
2019-03-16T06:23:25.841Z,85.03
2019-03-16T06:25:57.268Z,84.91
2019-03-16T06:28:27.634Z,84.74
2019-03-16T06:30:57.867Z,83.71
2019-03-16T06:33:28.129Z,83.26
2019-03-16T06:35:58.302Z,82.76
2019-03-16T06:38:28.411Z,82.60
2019-03-16T06:41:17.614Z,82.24
2019-03-16T06:44:06.833Z,82.28
2019-03-16T06:46:57.251Z,82.29
2019-03-16T06:49:47.057Z,82.07
2019-03-16T06:52:36.461Z,80.88
2019-03-16T06:55:25.993Z,80.87
2019-03-16T06:58:15.197Z,80.58
2019-03-16T07:01:04.717Z,80.10
2019-03-16T07:03:54.103Z,80.35
2019-03-16T07:06:43.886Z,79.56
2019-03-16T07:09:33.396Z,79.33
2019-03-16T07:12:22.797Z,78.83
2019-03-16T07:14:52.912Z,79.45
2019-03-16T07:17:23.660Z,78.83
2019-03-16T07:19:53.788Z,78.17
2019-03-16T07:22:43.130Z,77.86
2019-03-16T07:25:14.043Z,78.00
2019-03-16T07:28:03.214Z,78.03
2019-03-16T07:30:52.481Z,78.40
2019-03-16T07:33:41.981Z,78.74
2019-03-16T07:36:12.079Z,79.40
2019-03-16T07:38:42.329Z,79.25
2019-03-16T07:41:12.640Z,79.75
2019-03-16T07:44:02.088Z,78.28
2019-03-16T07:46:32.279Z,77.84
2019-03-16T07:49:02.469Z,77.25
2019-03-16T07:51:51.634Z,76.24
2019-03-16T07:54:40.772Z,76.11
2019-03-16T07:57:40.015Z,75.94
2019-03-16T08:00:21.063Z,75.57
2019-03-16T08:02:51.294Z,75.32
2019-03-16T08:05:40.426Z,75.16
2019-03-16T08:08:10.829Z,74.79
2019-03-16T08:10:40.969Z,74.77
2019-03-16T08:13:30.399Z,74.86
2019-03-16T08:16:00.493Z,75.36
2019-03-16T08:21:39.176Z,75.97
2019-03-16T08:24:09.904Z,76.19
2019-03-16T08:26:59.338Z,75.42
2019-03-16T08:29:51.105Z,75.27
2019-03-16T08:32:40.922Z,75.53
2019-03-16T08:35:32.994Z,74.57
2019-03-16T08:38:21.700Z,73.76
2019-03-16T08:47:27.926Z,72.48
2019-03-16T08:50:18.917Z,71.71
2019-03-16T08:52:50.058Z,71.35
2019-03-16T08:55:23.319Z,71.46
2019-03-16T08:58:05.693Z,70.37
2019-03-16T09:00:48.346Z,70.30
2019-03-16T09:03:21.436Z,70.80
2019-03-16T09:06:11.379Z,70.87
2019-03-16T09:08:42.234Z,71.33
2019-03-16T09:11:32.727Z,71.50
2019-03-16T09:14:24.415Z,71.40
2019-03-16T09:17:14.545Z,71.35
2019-03-16T09:19:46.365Z,71.44
2019-03-16T09:22:37.934Z,71.42
2019-03-16T09:25:10.337Z,71.31
2019-03-16T09:28:00.090Z,71.63
2019-03-16T09:30:50.770Z,71.65
2019-03-16T09:33:22.226Z,71.73
2019-03-16T09:36:12.963Z,71.51
2019-03-16T09:39:02.757Z,72.15
2019-03-16T09:41:52.402Z,73.14
2019-03-16T09:44:33.153Z,73.32
2019-03-16T09:47:16.277Z,74.47
2019-03-16T09:52:41.574Z,76.69
2019-03-16T09:55:23.454Z,77.94
2019-03-16T09:57:58.769Z,78.74
2019-03-16T10:00:48.983Z,79.69
2019-03-16T10:03:38.720Z,80.37
2019-03-16T10:06:30.332Z,80.05
2019-03-16T10:09:19.979Z,79.92
2019-03-16T10:12:09.728Z,79.67
2019-03-16T10:14:59.372Z,79.74
2019-03-16T10:17:49.137Z,79.66
2019-03-16T10:20:38.947Z,79.31
2019-03-16T10:23:29.244Z,78.29
2019-03-16T10:26:18.964Z,77.21
2019-03-16T10:29:08.598Z,77.46
2019-03-16T10:31:50.447Z,76.31
2019-03-16T10:34:30.628Z,76.53
2019-03-16T10:37:20.245Z,76.37
2019-03-16T10:39:53.420Z,75.38
2019-03-16T10:42:42.985Z,74.09
2019-03-16T10:45:32.562Z,73.26
2019-03-16T10:48:22.390Z,72.55
2019-03-16T10:51:11.952Z,72.19
2019-03-16T10:54:01.734Z,71.00
2019-03-16T10:56:51.334Z,70.84
2019-03-16T10:59:41.335Z,70.62
2019-03-16T11:02:31.940Z,69.36
2019-03-16T11:05:02.708Z,68.79
2019-03-16T11:07:52.320Z,67.96
2019-03-16T11:10:42.025Z,66.99
2019-03-16T11:13:31.670Z,65.18
2019-03-16T11:16:22.147Z,65.62
2019-03-16T11:19:11.883Z,66.23
2019-03-16T11:22:01.557Z,65.43
2019-03-16T11:24:33.996Z,64.15
2019-03-16T11:27:23.821Z,64.51
2019-03-16T11:30:13.705Z,63.59
2019-03-16T11:32:44.498Z,64.06
2019-03-16T11:35:34.229Z,63.63
2019-03-16T11:38:09.316Z,61.48
2019-03-16T11:41:00.193Z,61.02
2019-03-16T11:43:30.962Z,60.53
2019-03-16T11:46:20.906Z,59.86
2019-03-16T11:49:07.026Z,60.95
2019-03-16T11:51:45.327Z,60.12
2019-03-16T11:54:35.053Z,60.57
2019-03-16T11:57:05.925Z,59.63
2019-03-16T11:59:55.508Z,58.90
2019-03-16T12:02:45.691Z,58.17
2019-03-16T12:05:17.037Z,57.64
2019-03-16T12:08:06.667Z,56.48
2019-03-16T12:10:37.549Z,55.36
2019-03-16T12:13:17.094Z,55.83
2019-03-16T12:15:41.651Z,55.62
2019-03-16T12:18:12.446Z,55.48
2019-03-16T12:20:45.287Z,55.87
2019-03-16T12:23:34.725Z,54.12
2019-03-16T12:26:05.655Z,54.24
2019-03-16T12:28:36.952Z,53.84
2019-03-16T12:31:26.497Z,52.86
2019-03-16T12:33:57.461Z,52.93
2019-03-16T12:36:28.389Z,53.53
2019-03-16T12:39:35.473Z,54.03
2019-03-16T12:42:10.400Z,53.44
2019-03-16T12:44:41.866Z,52.78
2019-03-16T12:47:17.599Z,52.74
2019-03-16T12:50:07.295Z,53.31
2019-03-16T12:52:38.345Z,53.96
2019-03-16T12:55:28.208Z,53.63
2019-03-16T12:57:58.906Z,53.79
2019-03-16T13:00:29.596Z,54.23
2019-03-16T13:03:00.706Z,53.46
2019-03-16T13:05:31.633Z,53.49
2019-03-16T13:08:04.326Z,53.42
2019-03-16T13:10:36.757Z,53.44
2019-03-16T13:13:10.572Z,54.79
2019-03-16T13:16:04.227Z,55.12
2019-03-16T13:18:57.163Z,54.92
2019-03-16T13:21:47.499Z,53.65
2019-03-16T13:24:40.267Z,51.13
2019-03-16T13:27:11.298Z,48.12
2019-03-16T13:29:42.346Z,48.44
2019-03-16T13:32:14.252Z,49.69
2019-03-16T13:34:45.574Z,50.42
2019-03-16T13:37:35.587Z,49.18
2019-03-16T13:40:06.973Z,45.86
2019-03-16T13:42:37.748Z,46.72
2019-03-16T13:45:29.673Z,47.83
2019-03-16T13:48:01.616Z,50.76
2019-03-16T13:50:32.436Z,53.40
2019-03-16T13:53:22.472Z,52.79
2019-03-16T13:56:04.890Z,53.61
2019-03-16T13:58:35.886Z,54.51
2019-03-16T14:01:06.597Z,53.43
2019-03-16T14:03:37.857Z,52.87
2019-03-16T14:06:09.462Z,52.02
2019-03-16T14:08:40.273Z,51.41
2019-03-16T14:11:30.228Z,50.68
2019-03-16T14:14:19.835Z,50.73
2019-03-16T14:16:50.822Z,47.17
2019-03-16T14:19:40.614Z,44.97
2019-03-16T14:22:30.857Z,41.88
2019-03-16T14:25:02.868Z,39.42
2019-03-16T14:27:34.967Z,40.02
2019-03-16T14:30:08.198Z,42.21
2019-03-16T14:32:50.412Z,44.03
2019-03-16T14:38:20.379Z,48.21
2019-03-16T14:40:51.673Z,48.40
2019-03-16T14:46:31.590Z,47.83
2019-03-16T14:49:16.288Z,49.11
2019-03-16T14:52:24.789Z,49.67
2019-03-16T14:54:55.767Z,48.21
2019-03-16T14:57:58.991Z,48.18
2019-03-16T15:00:38.518Z,48.81
2019-03-16T15:03:23.227Z,49.80
2019-03-16T15:06:13.092Z,48.94
2019-03-16T15:08:44.043Z,49.57
2019-03-16T15:11:34.019Z,49.26
2019-03-16T15:14:05.124Z,48.68
2019-03-16T15:16:55.072Z,47.33
2019-03-16T15:19:27.353Z,45.87
2019-03-16T15:22:19.604Z,45.62
2019-03-16T15:25:11.390Z,45.34
2019-03-16T15:27:42.545Z,45.14
2019-03-16T15:30:14.741Z,48.16
2019-03-16T15:32:49.318Z,49.29
2019-03-16T15:35:20.873Z,48.63
2019-03-16T15:38:10.835Z,47.06
2019-03-16T15:40:42.086Z,48.17
2019-03-16T15:43:13.383Z,50.49
2019-03-16T15:46:19.502Z,51.13
2019-03-16T15:48:38.206Z,51.36
2019-03-16T15:51:28.012Z,50.71
2019-03-16T15:54:04.711Z,50.44
2019-03-16T16:00:00.451Z,49.38
2019-03-16T16:05:47.049Z,50.32
2019-03-16T16:08:23.750Z,51.07
2019-03-16T16:13:39.227Z,52.30
2019-03-16T16:16:28.862Z,51.66
2019-03-16T16:19:21.716Z,51.34
2019-03-16T16:22:11.676Z,51.88
2019-03-16T16:24:42.862Z,52.93
2019-03-16T16:27:13.835Z,53.79
2019-03-16T16:30:03.718Z,55.08
2019-03-16T16:32:45.655Z,54.90
2019-03-16T16:35:18.014Z,56.84
2019-03-16T16:37:49.588Z,57.52
2019-03-16T16:40:20.733Z,58.72
2019-03-16T16:42:51.867Z,57.99
2019-03-16T16:45:24.423Z,60.11
2019-03-16T16:48:15.328Z,58.85
2019-03-16T16:50:46.094Z,58.00
2019-03-16T16:53:36.404Z,59.77
2019-03-16T16:56:26.083Z,61.51
2019-03-16T16:58:57.313Z,62.81
2019-03-16T17:01:29.804Z,60.63
2019-03-16T17:04:00.504Z,62.38
2019-03-16T17:06:50.626Z,61.40
2019-03-16T17:09:21.558Z,62.49
2019-03-16T17:11:52.707Z,63.85
2019-03-16T17:14:46.871Z,64.50
2019-03-16T17:17:36.663Z,63.56
2019-03-16T17:20:08.089Z,61.22
2019-03-16T17:23:01.785Z,63.01
2019-03-16T17:28:39.254Z,63.39
2019-03-16T17:31:41.630Z,64.39
2019-03-16T17:34:25.678Z,63.52
2019-03-16T17:36:57.855Z,62.78
2019-03-16T17:39:47.423Z,64.33
2019-03-16T17:42:43.527Z,64.06
2019-03-16T17:45:20.285Z,64.70
2019-03-16T17:48:08.647Z,65.47
2019-03-16T17:51:03.065Z,65.99
2019-03-16T17:53:46.913Z,65.33
2019-03-16T17:59:16.254Z,65.57
2019-03-16T18:01:58.146Z,66.36
2019-03-16T18:04:49.005Z,68.33
2019-03-16T18:07:23.515Z,67.79
2019-03-16T18:09:57.670Z,68.14
2019-03-16T18:12:31.164Z,67.46
2019-03-16T18:15:03.604Z,68.29
2019-03-16T18:17:38.658Z,69.03
2019-03-16T18:20:13.107Z,66.96
2019-03-16T18:23:05.335Z,67.52
2019-03-16T18:25:37.895Z,67.62
2019-03-16T18:31:44.007Z,64.64
2019-03-16T18:34:23.748Z,66.46
2019-03-16T18:40:09.857Z,65.42
2019-03-16T18:42:41.361Z,67.97
2019-03-16T18:45:31.293Z,69.41
2019-03-16T18:48:03.677Z,70.24
2019-03-16T18:50:34.512Z,71.29
2019-03-16T18:53:24.255Z,70.24
2019-03-16T18:56:13.978Z,70.05
2019-03-16T18:59:03.657Z,71.04
2019-03-16T19:01:53.378Z,71.82
2019-03-16T19:04:24.091Z,72.62
2019-03-16T19:06:55.349Z,73.79
2019-03-16T19:09:27.080Z,73.91
2019-03-16T19:11:57.809Z,75.16
2019-03-16T19:14:28.591Z,74.85
2019-03-16T19:17:18.382Z,74.12
2019-03-16T19:20:11.478Z,73.63
2019-03-16T19:22:52.426Z,75.41
2019-03-16T19:25:23.544Z,75.42
2019-03-16T19:27:54.523Z,71.07
2019-03-16T19:33:16.244Z,68.95
2019-03-16T19:35:46.876Z,68.72
2019-03-16T19:38:36.534Z,66.29
2019-03-16T19:41:27.440Z,65.28
2019-03-16T19:43:59.740Z,65.70
2019-03-16T19:46:30.909Z,65.19
2019-03-16T19:49:20.601Z,65.15
2019-03-16T19:51:51.282Z,65.08
2019-03-16T19:54:22.305Z,64.46
2019-03-16T19:56:53.404Z,64.58
2019-03-16T19:59:24.228Z,64.48
2019-03-16T20:02:17.131Z,64.05
2019-03-16T20:04:48.790Z,65.52
2019-03-16T20:07:21.802Z,66.37
2019-03-16T20:10:03.300Z,67.50
2019-03-16T20:12:43.774Z,68.73
2019-03-16T20:15:33.352Z,69.57
2019-03-16T20:18:04.281Z,70.17
2019-03-16T20:20:36.393Z,70.19
2019-03-16T20:23:07.894Z,69.89
2019-03-16T20:25:38.619Z,69.32
2019-03-16T20:28:28.538Z,69.02
2019-03-16T20:30:59.226Z,68.63
2019-03-16T20:33:30.078Z,69.21
2019-03-16T20:36:01.695Z,68.47
2019-03-16T20:38:32.727Z,67.25
2019-03-16T20:41:03.853Z,65.69
2019-03-16T20:43:54.633Z,64.98
2019-03-16T20:46:25.648Z,64.54
2019-03-16T20:48:57.887Z,65.01
2019-03-16T20:51:31.438Z,64.77
2019-03-16T20:54:21.142Z,63.26
2019-03-16T20:56:51.914Z,64.25
2019-03-16T20:59:22.649Z,63.46
2019-03-16T21:01:53.647Z,62.57
2019-03-16T21:04:43.523Z,62.66
2019-03-16T21:07:33.171Z,63.72
2019-03-16T21:10:22.771Z,63.77
2019-03-16T21:13:06.102Z,65.81
2019-03-16T21:15:45.407Z,63.71
2019-03-16T21:18:16.251Z,63.40
2019-03-16T21:20:46.999Z,63.27
2019-03-16T21:23:19.768Z,64.14
2019-03-16T21:26:02.074Z,64.41
2019-03-16T21:28:43.732Z,63.13
2019-03-16T21:31:26.272Z,61.78
2019-03-16T21:33:58.770Z,61.10
2019-03-16T21:36:40.935Z,61.28
2019-03-16T21:39:02.054Z,62.99
2019-03-16T21:41:33.409Z,63.83
2019-03-16T21:44:23.309Z,61.46
2019-03-16T21:46:53.998Z,60.76
2019-03-16T21:49:43.794Z,61.13
2019-03-16T21:52:15.412Z,62.17
2019-03-16T21:55:09.358Z,61.37
2019-03-16T21:57:59.337Z,60.54
2019-03-16T22:00:49.575Z,60.59
2019-03-16T22:03:41.838Z,59.97
2019-03-16T22:06:31.381Z,59.93
2019-03-16T22:09:02.776Z,59.27
2019-03-16T22:11:52.586Z,59.61
2019-03-16T22:14:43.759Z,59.25
2019-03-16T22:17:33.851Z,60.05
2019-03-16T22:20:15.520Z,60.71
2019-03-16T22:22:56.982Z,60.61
2019-03-16T22:25:38.732Z,59.94
2019-03-16T22:31:03.782Z,60.15
2019-03-16T22:33:35.282Z,61.17
2019-03-16T22:36:25.491Z,60.67
2019-03-16T22:38:56.169Z,62.38
2019-03-16T22:41:45.974Z,63.82
2019-03-16T22:44:54.913Z,64.11
2019-03-16T22:47:46.451Z,65.69
2019-03-16T22:50:36.304Z,67.02
2019-03-16T22:53:17.085Z,67.43
2019-03-16T22:56:08.439Z,67.91
2019-03-16T22:58:58.217Z,67.10
2019-03-16T23:01:29.163Z,67.57
2019-03-16T23:04:06.860Z,67.65
2019-03-16T23:06:34.850Z,68.21
2019-03-16T23:09:24.562Z,68.72
2019-03-16T23:11:55.293Z,68.11
2019-03-16T23:14:45.026Z,68.46
2019-03-16T23:17:15.847Z,67.36
2019-03-16T23:20:05.846Z,68.51
2019-03-16T23:22:56.635Z,67.83
2019-03-16T23:25:51.202Z,66.00
2019-03-16T23:28:22.451Z,66.90
2019-03-16T23:30:53.872Z,66.46
2019-03-16T23:33:24.896Z,64.68
2019-03-16T23:35:56.054Z,65.52
2019-03-16T23:38:45.975Z,63.21
2019-03-16T23:41:35.635Z,63.93
2019-03-16T23:44:25.485Z,63.69
2019-03-16T23:47:15.219Z,62.51
2019-03-16T23:50:05.612Z,61.98
2019-03-16T23:52:40.863Z,62.14
2019-03-16T23:55:30.817Z,62.89
2019-03-16T23:58:20.634Z,62.98
